Aeroporto :
LOGIN :

Iscrizione | Disclaimer

   EN    FR    IT 

 










Sommario :    VFR   VFR Marginale   IFR   IFR Intensivo   IFR Molto Intensivo
Visibilità : 
Base nubi : 
>= 8 km
>= 3000ft
5 / 8 km
1000 / 3000 ft
1500m / 5 km
500 / 1000 ft
800 / 1500m
200 / 500 ft
< 800m
< 200 ft
Simboli :   Temporali  Nebbia  Neve Forte  Precipitazioni Forti  Vento > 20 kt
SIGMETs :   Varie  Temporali  Ghiacco  Turbolenza  Onda orograficha  Ceneri Vulcaniche






- Altitudine del aeroporto : 194 ft


EBCV - Chièvres

ULTIMO METAR :
  • 171755Z AUTO 34007KT 9999 FEW170/// SCT210/// 05/03 Q1010 BLU

METARs OBSOLETI :
  • 171725Z AUTO 35006KT 9999 BKN160/// BKN210/// 05/03 Q1010 BLU
  • 171655Z AUTO 35006KT 9999 FEW150/// SCT160/// 05/03 Q1010 BLU
  • 171625Z AUTO 35006KT 9999 BKN180/// 05/03 Q1010 BLU
  • 171555Z AUTO 36006KT 9999 FEW190/// 06/03 Q1010 BLU
  • 171525Z AUTO 01007KT 9999 BKN170/// 06/03 Q1010 BLU

TAF TAF EBCV
Valido dal 17 a 13 ore il 17 a 22 ore UTC


171141Z 1713/1722 02006KT 9999 SCT200
BECMG 1716/1718 02010KT BKN140 OVC200
TEMPO 1720/1722 35008KT SCT025 BKN120 OVC180 BY EBWM



MetMap, La meteo Aeronautica in un colpo d'occhio ! - Copyright ORBIFLY Dicembre 2007 - Disclaimer

ORBIFLY MET'MAP TEAM :

Programmazione e sviluppo : Alexandra Zaïnal
Concezione e sviluppo : Baudouin d'Aumeries
Co-Programmazione e sviluppo : Marc-Olivier Méhu
Supporto tecnico e logistico : Manuel Goepfert
Aiuto per la traduzione : Arnaldo La Scala

Contatto : metmap@orbifly.com




FONTI E CREDITI :

   NOAA